createdAt,value
2022-11-10T00:00:28.323Z,1009.48
2022-11-10T00:01:03.519Z,1009.45
2022-11-10T00:01:38.705Z,1009.46
2022-11-10T00:02:13.916Z,1009.48
2022-11-10T00:02:49.104Z,1009.46
2022-11-10T00:03:24.526Z,1009.47
2022-11-10T00:03:59.626Z,1009.51
2022-11-10T00:04:34.974Z,1009.50
2022-11-10T00:05:10.158Z,1009.51
2022-11-10T00:05:45.463Z,1009.53
2022-11-10T00:06:20.856Z,1009.50
2022-11-10T00:06:56.130Z,1009.52
2022-11-10T00:07:31.176Z,1009.55
2022-11-10T00:08:06.077Z,1009.54
2022-11-10T00:08:41.843Z,1009.56
2022-11-10T00:09:17.321Z,1009.52
2022-11-10T00:09:52.529Z,1009.49
2022-11-10T00:10:28.108Z,1009.51
2022-11-10T00:11:03.553Z,1009.50
2022-11-10T00:11:38.839Z,1009.50
2022-11-10T00:12:14.162Z,1009.51
2022-11-10T00:12:49.483Z,1009.55
2022-11-10T00:13:24.690Z,1009.48
2022-11-10T00:13:59.593Z,1009.53
2022-11-10T00:14:34.909Z,1009.54
2022-11-10T00:15:10.112Z,1009.50
2022-11-10T00:15:45.523Z,1009.49
2022-11-10T00:16:20.426Z,1009.53
2022-11-10T00:16:55.967Z,1009.55
2022-11-10T00:17:31.176Z,1009.51
2022-11-10T00:18:06.596Z,1009.55
2022-11-10T00:18:41.975Z,1009.56
2022-11-10T00:19:16.991Z,1009.56
2022-11-10T00:19:52.286Z,1009.59
2022-11-10T00:20:27.729Z,1009.57
2022-11-10T00:21:02.814Z,1009.60
2022-11-10T00:21:38.008Z,1009.62
2022-11-10T00:22:13.127Z,1009.57
2022-11-10T00:22:48.762Z,1009.67
2022-11-10T00:23:24.239Z,1009.64
2022-11-10T00:23:59.149Z,1009.68
2022-11-10T00:24:34.142Z,1009.66
2022-11-10T00:25:09.473Z,1009.66
2022-11-10T00:25:44.660Z,1009.66
2022-11-10T00:26:19.803Z,1009.69
2022-11-10T00:26:54.997Z,1009.69
2022-11-10T00:27:30.251Z,1009.66
2022-11-10T00:28:05.485Z,1009.71
2022-11-10T00:28:40.391Z,1009.71
2022-11-10T00:29:15.582Z,1009.67
2022-11-10T00:29:50.891Z,1009.66
2022-11-10T00:30:25.975Z,1009.76
2022-11-10T00:31:01.276Z,1009.74
2022-11-10T00:31:36.278Z,1009.76
2022-11-10T00:32:11.847Z,1009.80
2022-11-10T00:32:47.235Z,1009.81
2022-11-10T00:33:22.697Z,1009.78
2022-11-10T00:33:57.529Z,1009.80
2022-11-10T00:34:32.762Z,1009.83
2022-11-10T00:35:07.947Z,1009.82
2022-11-10T00:35:43.148Z,1009.86
2022-11-10T00:36:18.434Z,1009.87
2022-11-10T00:36:53.825Z,1009.82
2022-11-10T00:37:29.126Z,1009.83
2022-11-10T00:38:04.245Z,1009.89
2022-11-10T00:38:39.322Z,1009.86
2022-11-10T00:39:14.737Z,1009.86
2022-11-10T00:39:50.028Z,1009.93
2022-11-10T00:40:25.228Z,1009.93
2022-11-10T00:41:00.216Z,1009.93
2022-11-10T00:41:35.523Z,1009.92
2022-11-10T00:42:10.827Z,1009.99
2022-11-10T00:42:45.923Z,1009.94
2022-11-10T00:43:25.370Z,1010.03
2022-11-10T00:43:56.226Z,1010.02
2022-11-10T00:44:31.545Z,1010.02
2022-11-10T00:45:06.736Z,1010.01
2022-11-10T00:45:42.316Z,1010.01
2022-11-10T00:46:17.757Z,1010.01
2022-11-10T00:46:53.342Z,1010.00
2022-11-10T00:47:28.658Z,1009.99
2022-11-10T00:48:03.854Z,1009.98
2022-11-10T00:48:39.152Z,1009.98
2022-11-10T00:49:14.340Z,1010.00
2022-11-10T00:49:49.241Z,1009.98
2022-11-10T00:50:24.644Z,1010.00
2022-11-10T00:51:00.063Z,1009.99
2022-11-10T00:51:35.463Z,1009.96
2022-11-10T00:52:10.741Z,1009.97
2022-11-10T00:52:45.832Z,1009.96
2022-11-10T00:53:21.477Z,1009.93
2022-11-10T00:53:56.216Z,1009.97
2022-11-10T00:54:31.212Z,1009.98
2022-11-10T00:55:06.191Z,1009.94
2022-11-10T00:55:41.306Z,1009.96
2022-11-10T00:56:16.495Z,1009.96
2022-11-10T00:56:51.690Z,1009.95
2022-11-10T00:57:27.393Z,1009.98
2022-11-10T00:58:02.552Z,1010.00
2022-11-10T00:58:38.153Z,1009.97
2022-11-10T00:59:13.462Z,1009.95
2022-11-10T00:59:48.756Z,1009.93
2022-11-10T01:00:24.059Z,1009.97
2022-11-10T01:00:59.270Z,1009.96
2022-11-10T01:01:34.795Z,1009.95
2022-11-10T01:02:10.160Z,1009.93
2022-11-10T01:02:45.358Z,1009.94
2022-11-10T01:03:20.861Z,1009.92
2022-11-10T01:03:56.055Z,1009.95
2022-11-10T01:04:31.663Z,1009.92
2022-11-10T01:05:06.852Z,1009.95
2022-11-10T01:05:42.245Z,1009.93
2022-11-10T01:06:17.335Z,1009.95
2022-11-10T01:06:52.688Z,1009.97
2022-11-10T01:07:27.740Z,1009.98
2022-11-10T01:08:03.139Z,1010.01
2022-11-10T01:08:38.528Z,1010.00
2022-11-10T01:09:13.813Z,1010.02
2022-11-10T01:09:48.739Z,1010.03
2022-11-10T01:10:23.940Z,1010.02
2022-11-10T01:10:59.039Z,1010.03
2022-11-10T01:11:34.323Z,1010.06
2022-11-10T01:12:09.548Z,1010.05
2022-11-10T01:12:44.738Z,1009.99
2022-11-10T01:13:20.450Z,1010.07
2022-11-10T01:13:55.147Z,1010.10
2022-11-10T01:14:30.448Z,1010.02
2022-11-10T01:15:05.832Z,1010.05
2022-11-10T01:15:40.941Z,1010.04
2022-11-10T01:16:16.316Z,1010.05
2022-11-10T01:16:51.408Z,1010.01
2022-11-10T01:17:26.601Z,1010.05
2022-11-10T01:18:01.815Z,1010.06
2022-11-10T01:18:36.898Z,1010.09
2022-11-10T01:19:12.099Z,1010.07
2022-11-10T01:19:47.613Z,1010.07
2022-11-10T01:20:23.121Z,1010.07
2022-11-10T01:20:58.324Z,1010.06
2022-11-10T01:21:33.814Z,1010.08
2022-11-10T01:22:09.168Z,1010.10
2022-11-10T01:22:44.208Z,1010.13
2022-11-10T01:23:20.054Z,1010.17
2022-11-10T01:23:55.098Z,1010.21
2022-11-10T01:24:30.437Z,1010.22
2022-11-10T01:25:05.619Z,1010.21
2022-11-10T01:25:40.833Z,1010.26
2022-11-10T01:26:16.119Z,1010.27
2022-11-10T01:26:51.233Z,1010.27
2022-11-10T01:27:26.332Z,1010.29
2022-11-10T01:28:01.757Z,1010.33
2022-11-10T01:28:36.830Z,1010.35
2022-11-10T01:29:12.065Z,1010.41
2022-11-10T01:29:47.389Z,1010.37
2022-11-10T01:30:22.503Z,1010.34
2022-11-10T01:30:57.693Z,1010.34
2022-11-10T01:31:32.883Z,1010.36
2022-11-10T01:32:08.345Z,1010.37
2022-11-10T01:32:43.665Z,1010.36
2022-11-10T01:33:19.236Z,1010.36
2022-11-10T01:33:54.451Z,1010.37
2022-11-10T01:34:29.556Z,1010.36
2022-11-10T01:35:04.978Z,1010.37
2022-11-10T01:35:40.260Z,1010.42
2022-11-10T01:36:15.655Z,1010.35
2022-11-10T01:36:50.839Z,1010.36
2022-11-10T01:37:26.266Z,1010.36
2022-11-10T01:38:01.550Z,1010.43
2022-11-10T01:38:36.657Z,1010.39
2022-11-10T01:39:11.946Z,1010.39
2022-11-10T01:39:47.244Z,1010.41
2022-11-10T01:40:22.389Z,1010.40
2022-11-10T01:40:57.530Z,1010.44
2022-11-10T01:41:32.809Z,1010.41
2022-11-10T01:42:08.127Z,1010.42
2022-11-10T01:42:43.307Z,1010.44
2022-11-10T01:43:18.902Z,1010.45
2022-11-10T01:43:53.678Z,1010.41
2022-11-10T01:44:29.182Z,1010.42
2022-11-10T01:45:04.261Z,1010.42
2022-11-10T01:45:39.767Z,1010.44
2022-11-10T01:46:15.158Z,1010.44
2022-11-10T01:46:50.559Z,1010.46
2022-11-10T01:47:25.687Z,1010.46
2022-11-10T01:48:00.604Z,1010.43
2022-11-10T01:48:35.616Z,1010.43
2022-11-10T01:49:10.630Z,1010.50
2022-11-10T01:49:45.636Z,1010.49
2022-11-10T01:50:20.853Z,1010.53
2022-11-10T01:50:56.056Z,1010.53
2022-11-10T01:51:31.258Z,1010.55
2022-11-10T01:52:06.563Z,1010.56
2022-11-10T01:52:42.381Z,1010.61
2022-11-10T01:53:17.428Z,1010.60
2022-11-10T01:53:52.833Z,1010.57
2022-11-10T01:54:28.015Z,1010.56
2022-11-10T01:55:03.334Z,1010.56
2022-11-10T01:55:38.626Z,1010.55
2022-11-10T01:56:13.941Z,1010.57
2022-11-10T01:56:49.628Z,1010.55
2022-11-10T01:57:24.843Z,1010.58
2022-11-10T01:58:00.038Z,1010.62
2022-11-10T01:58:35.289Z,1010.56
2022-11-10T01:59:10.782Z,1010.64
2022-11-10T01:59:46.008Z,1010.62
2022-11-10T02:00:21.399Z,1010.59
2022-11-10T02:00:56.580Z,1010.56
2022-11-10T02:01:31.687Z,1010.56
2022-11-10T02:02:06.723Z,1010.60
2022-11-10T02:02:41.920Z,1010.58
2022-11-10T02:03:17.044Z,1010.58
2022-11-10T02:03:52.337Z,1010.61
2022-11-10T02:04:27.620Z,1010.59
2022-11-10T02:05:02.924Z,1010.61
2022-11-10T02:05:38.300Z,1010.62
2022-11-10T02:06:13.320Z,1010.61
2022-11-10T02:06:48.445Z,1010.63
2022-11-10T02:07:23.529Z,1010.63
2022-11-10T02:07:58.921Z,1010.62
2022-11-10T02:08:34.227Z,1010.67
2022-11-10T02:09:09.509Z,1010.72
2022-11-10T02:09:44.613Z,1010.68
2022-11-10T02:10:19.801Z,1010.68
2022-11-10T02:10:55.127Z,1010.73
2022-11-10T02:11:30.509Z,1010.69
2022-11-10T02:12:06.137Z,1010.71
2022-11-10T02:12:41.241Z,1010.70
2022-11-10T02:13:16.823Z,1010.70
2022-11-10T02:13:52.130Z,1010.77
2022-11-10T02:14:27.540Z,1010.73
2022-11-10T02:15:02.638Z,1010.76
2022-11-10T02:15:37.649Z,1010.79
2022-11-10T02:16:12.547Z,1010.74
2022-11-10T02:16:47.775Z,1010.75
2022-11-10T02:17:22.978Z,1010.78
2022-11-10T02:17:58.189Z,1010.75
2022-11-10T02:18:33.575Z,1010.73
2022-11-10T02:19:08.797Z,1010.77
2022-11-10T02:19:44.375Z,1010.70
2022-11-10T02:20:19.680Z,1010.71
2022-11-10T02:20:55.079Z,1010.69
2022-11-10T02:21:30.587Z,1010.73
2022-11-10T02:22:05.586Z,1010.69
2022-11-10T02:22:40.694Z,1010.74
2022-11-10T02:23:15.672Z,1010.78
2022-11-10T02:23:50.972Z,1010.77
2022-11-10T02:24:26.454Z,1010.75
2022-11-10T02:25:01.480Z,1010.75
2022-11-10T02:25:36.370Z,1010.72
2022-11-10T02:26:11.468Z,1010.72
2022-11-10T02:26:47.060Z,1010.75
2022-11-10T02:27:26.141Z,1010.72
2022-11-10T02:28:01.128Z,1010.73
2022-11-10T02:28:36.322Z,1010.72
2022-11-10T02:29:11.623Z,1010.76
2022-11-10T02:29:47.050Z,1010.78
2022-11-10T02:30:26.502Z,1010.75
2022-11-10T02:30:57.159Z,1010.78
2022-11-10T02:31:32.355Z,1010.77
2022-11-10T02:32:07.697Z,1010.74
2022-11-10T02:32:42.876Z,1010.77
2022-11-10T02:33:18.006Z,1010.74
2022-11-10T02:33:53.502Z,1010.75
2022-11-10T02:34:28.831Z,1010.74
2022-11-10T02:35:04.024Z,1010.73
2022-11-10T02:35:39.518Z,1010.71
2022-11-10T02:36:14.725Z,1010.74
2022-11-10T02:36:50.057Z,1010.74
2022-11-10T02:37:25.431Z,1010.73
2022-11-10T02:38:00.831Z,1010.77
2022-11-10T02:38:35.828Z,1010.76
2022-11-10T02:39:10.639Z,1010.72
2022-11-10T02:39:45.839Z,1010.76
2022-11-10T02:40:21.569Z,1010.76
2022-11-10T02:40:56.748Z,1010.77
2022-11-10T02:41:32.269Z,1010.80
2022-11-10T02:42:07.377Z,1010.74
2022-11-10T02:42:42.794Z,1010.80
2022-11-10T02:43:18.113Z,1010.77
2022-11-10T02:43:53.194Z,1010.79
2022-11-10T02:44:28.515Z,1010.83
2022-11-10T02:45:03.718Z,1010.82
2022-11-10T02:45:38.823Z,1010.81
2022-11-10T02:46:14.338Z,1010.83
2022-11-10T02:46:49.633Z,1010.87
2022-11-10T02:47:24.919Z,1010.84
2022-11-10T02:48:00.104Z,1010.85
2022-11-10T02:48:35.318Z,1010.85
2022-11-10T02:49:10.640Z,1010.89
2022-11-10T02:49:45.644Z,1010.88
2022-11-10T02:50:20.718Z,1010.88
2022-11-10T02:50:56.176Z,1010.92
2022-11-10T02:51:31.369Z,1010.90
2022-11-10T02:52:06.602Z,1010.89
2022-11-10T02:52:42.398Z,1010.90
2022-11-10T02:53:17.494Z,1010.91
2022-11-10T02:53:52.793Z,1010.89
2022-11-10T02:54:28.195Z,1011.00
2022-11-10T02:55:03.184Z,1010.91
2022-11-10T02:55:38.492Z,1010.97
2022-11-10T02:56:13.691Z,1010.96
2022-11-10T02:56:48.991Z,1011.03
2022-11-10T02:57:24.290Z,1011.01
2022-11-10T02:57:59.396Z,1011.00
2022-11-10T02:58:34.685Z,1011.04
2022-11-10T02:59:09.996Z,1011.04
2022-11-10T02:59:44.971Z,1011.07
2022-11-10T03:00:20.280Z,1011.05
2022-11-10T03:00:55.706Z,1011.11
2022-11-10T03:01:30.957Z,1011.07
2022-11-10T03:02:06.217Z,1011.11
2022-11-10T03:02:41.537Z,1011.06
2022-11-10T03:03:16.643Z,1011.05
2022-11-10T03:03:52.277Z,1011.08
2022-11-10T03:04:27.469Z,1011.05
2022-11-10T03:05:02.593Z,1011.06
2022-11-10T03:05:38.075Z,1011.05
2022-11-10T03:06:13.185Z,1011.02
2022-11-10T03:06:48.336Z,1011.02
2022-11-10T03:07:23.401Z,1011.02
2022-11-10T03:07:58.698Z,1011.00
2022-11-10T03:08:34.202Z,1011.03
2022-11-10T03:09:09.407Z,1011.02
2022-11-10T03:09:44.826Z,1011.01
2022-11-10T03:10:20.024Z,1010.99
2022-11-10T03:10:55.248Z,1010.95
2022-11-10T03:11:32.402Z,1010.94
2022-11-10T03:12:05.556Z,1010.98
2022-11-10T03:12:40.843Z,1011.02
2022-11-10T03:13:15.863Z,1011.07
2022-11-10T03:14:01.509Z,1011.06
2022-11-10T03:14:26.553Z,1011.11
2022-11-10T03:15:01.778Z,1011.11
2022-11-10T03:15:37.065Z,1011.14
2022-11-10T03:16:12.282Z,1011.09
2022-11-10T03:16:47.273Z,1011.10
2022-11-10T03:17:22.404Z,1011.12
2022-11-10T03:17:57.619Z,1011.13
2022-11-10T03:18:32.914Z,1011.10
2022-11-10T03:19:08.120Z,1011.13
2022-11-10T03:19:43.106Z,1011.12
2022-11-10T03:20:18.228Z,1011.16
2022-11-10T03:20:53.531Z,1011.11
2022-11-10T03:21:28.650Z,1011.10
2022-11-10T03:22:03.872Z,1011.11
2022-11-10T03:22:39.169Z,1011.14
2022-11-10T03:23:14.579Z,1011.19
2022-11-10T03:23:49.656Z,1011.23
2022-11-10T03:24:25.175Z,1011.26
2022-11-10T03:25:00.275Z,1011.27
2022-11-10T03:25:35.683Z,1011.28
2022-11-10T03:26:10.894Z,1011.28
2022-11-10T03:26:46.212Z,1011.30
2022-11-10T03:27:21.234Z,1011.31
2022-11-10T03:27:56.527Z,1011.30
2022-11-10T03:28:31.939Z,1011.32
2022-11-10T03:29:07.241Z,1011.32
2022-11-10T03:29:42.732Z,1011.36
2022-11-10T03:30:18.044Z,1011.41
2022-11-10T03:30:53.135Z,1011.42
2022-11-10T03:31:28.444Z,1011.46
2022-11-10T03:32:03.661Z,1011.41
2022-11-10T03:32:38.956Z,1011.46
2022-11-10T03:33:14.014Z,1011.53
2022-11-10T03:33:49.405Z,1011.49
2022-11-10T03:34:27.018Z,1011.51
2022-11-10T03:35:00.412Z,1011.50
2022-11-10T03:35:36.062Z,1011.48
2022-11-10T03:36:11.598Z,1011.50
2022-11-10T03:36:46.781Z,1011.53
2022-11-10T03:37:21.808Z,1011.46
2022-11-10T03:37:57.012Z,1011.47
2022-11-10T03:38:32.230Z,1011.45
2022-11-10T03:39:07.938Z,1011.43
2022-11-10T03:39:43.454Z,1011.42
2022-11-10T03:40:18.468Z,1011.40
2022-11-10T03:41:21.159Z,1011.41
2022-11-10T03:41:29.424Z,1011.42
2022-11-10T03:42:04.537Z,1011.44
2022-11-10T03:42:39.848Z,1011.42
2022-11-10T03:43:15.024Z,1011.47
2022-11-10T03:43:50.406Z,1011.40
2022-11-10T03:44:25.710Z,1011.44
2022-11-10T03:45:01.255Z,1011.44
2022-11-10T03:45:36.657Z,1011.45
2022-11-10T03:46:11.744Z,1011.42
2022-11-10T03:46:51.288Z,1011.43
2022-11-10T03:47:22.057Z,1011.37
2022-11-10T03:47:57.460Z,1011.34
2022-11-10T03:48:32.663Z,1011.34
2022-11-10T03:49:08.150Z,1011.32
2022-11-10T03:49:43.405Z,1011.39
2022-11-10T03:50:18.637Z,1011.39
2022-11-10T03:50:53.733Z,1011.43
2022-11-10T03:51:29.540Z,1011.44
2022-11-10T03:52:05.059Z,1011.44
2022-11-10T03:52:40.368Z,1011.46
2022-11-10T03:53:15.671Z,1011.40
2022-11-10T03:53:51.390Z,1011.39
2022-11-10T03:54:26.704Z,1011.39
2022-11-10T03:55:03.488Z,1011.42
2022-11-10T03:55:37.213Z,1011.45
2022-11-10T03:56:12.302Z,1011.46
2022-11-10T03:56:47.413Z,1011.52
2022-11-10T03:57:22.627Z,1011.51
2022-11-10T03:57:57.825Z,1011.49
2022-11-10T03:58:33.024Z,1011.47
2022-11-10T03:59:08.224Z,1011.53
2022-11-10T03:59:43.617Z,1011.61
2022-11-10T04:00:19.327Z,1011.59
2022-11-10T04:00:54.551Z,1011.62
2022-11-10T04:01:29.916Z,1011.66
2022-11-10T04:02:05.015Z,1011.65
2022-11-10T04:02:40.055Z,1011.65
2022-11-10T04:03:17.713Z,1011.71
2022-11-10T04:03:52.800Z,1011.70
2022-11-10T04:04:27.926Z,1011.70
2022-11-10T04:05:03.388Z,1011.70
2022-11-10T04:05:38.681Z,1011.75
2022-11-10T04:06:14.090Z,1011.74
2022-11-10T04:06:49.323Z,1011.72
2022-11-10T04:07:24.696Z,1011.78
2022-11-10T04:08:00.208Z,1011.79
2022-11-10T04:08:35.730Z,1011.84
2022-11-10T04:09:11.313Z,1011.82
2022-11-10T04:09:46.518Z,1011.88
2022-11-10T04:10:21.924Z,1011.88
2022-11-10T04:10:57.042Z,1011.90
2022-11-10T04:11:32.446Z,1011.92
2022-11-10T04:12:07.763Z,1011.92
2022-11-10T04:12:42.773Z,1011.96
2022-11-10T04:13:18.409Z,1011.95
2022-11-10T04:13:53.696Z,1011.95
2022-11-10T04:14:29.104Z,1011.98
2022-11-10T04:15:04.208Z,1012.00
2022-11-10T04:15:39.405Z,1012.00
2022-11-10T04:16:14.810Z,1011.99
2022-11-10T04:16:50.311Z,1012.01
2022-11-10T04:17:25.625Z,1011.98
2022-11-10T04:18:00.837Z,1012.03
2022-11-10T04:18:36.054Z,1012.00
2022-11-10T04:19:11.645Z,1012.01
2022-11-10T04:19:46.754Z,1012.03
2022-11-10T04:20:21.877Z,1012.02
2022-11-10T04:20:57.261Z,1012.01
2022-11-10T04:21:32.372Z,1012.05
2022-11-10T04:22:07.389Z,1012.03
2022-11-10T04:22:42.493Z,1012.06
2022-11-10T04:23:17.804Z,1012.06
2022-11-10T04:23:53.283Z,1012.04
2022-11-10T04:24:28.597Z,1011.98
2022-11-10T04:25:03.994Z,1012.00
2022-11-10T04:25:39.201Z,1012.04
2022-11-10T04:26:14.393Z,1012.06
2022-11-10T04:26:49.594Z,1012.04
2022-11-10T04:27:25.129Z,1012.12
2022-11-10T04:28:00.215Z,1012.18
2022-11-10T04:28:35.720Z,1012.20
2022-11-10T04:29:10.834Z,1012.23
2022-11-10T04:29:46.059Z,1012.18
2022-11-10T04:30:21.373Z,1012.21
2022-11-10T04:30:56.480Z,1012.21
2022-11-10T04:31:32.260Z,1012.17
2022-11-10T04:32:07.666Z,1012.22
2022-11-10T04:32:43.072Z,1012.20
2022-11-10T04:33:18.219Z,1012.19
2022-11-10T04:33:53.527Z,1012.16
2022-11-10T04:34:28.737Z,1012.20
2022-11-10T04:35:04.227Z,1012.20
2022-11-10T04:35:39.343Z,1012.18
2022-11-10T04:36:14.830Z,1012.21
2022-11-10T04:36:50.047Z,1012.25
2022-11-10T04:37:25.391Z,1012.26
2022-11-10T04:38:00.915Z,1012.26
2022-11-10T04:38:36.124Z,1012.24
2022-11-10T04:39:11.325Z,1012.27
2022-11-10T04:39:46.247Z,1012.23
2022-11-10T04:40:21.429Z,1012.24
2022-11-10T04:40:56.932Z,1012.24
2022-11-10T04:41:32.147Z,1012.21
2022-11-10T04:42:07.754Z,1012.24
2022-11-10T04:42:43.365Z,1012.25
2022-11-10T04:43:18.427Z,1012.27
2022-11-10T04:43:53.682Z,1012.31
2022-11-10T04:44:29.212Z,1012.35
2022-11-10T04:45:04.418Z,1012.36
2022-11-10T04:45:39.622Z,1012.36
2022-11-10T04:46:14.932Z,1012.32
2022-11-10T04:46:50.310Z,1012.30
2022-11-10T04:47:25.654Z,1012.34
2022-11-10T04:48:01.042Z,1012.33
2022-11-10T04:48:36.268Z,1012.32
2022-11-10T04:49:11.567Z,1012.32
2022-11-10T04:49:46.566Z,1012.39
2022-11-10T04:50:21.658Z,1012.39
2022-11-10T04:50:57.170Z,1012.35
2022-11-10T04:51:32.342Z,1012.34
2022-11-10T04:52:07.698Z,1012.32
2022-11-10T04:52:43.106Z,1012.33
2022-11-10T04:53:18.598Z,1012.33
2022-11-10T04:53:53.930Z,1012.35
2022-11-10T04:54:29.228Z,1012.35
2022-11-10T04:55:04.662Z,1012.37
2022-11-10T04:55:39.747Z,1012.35
2022-11-10T04:56:14.954Z,1012.37
2022-11-10T04:56:50.551Z,1012.32
2022-11-10T04:57:25.656Z,1012.36
2022-11-10T04:58:01.225Z,1012.33
2022-11-10T04:58:36.816Z,1012.38
2022-11-10T04:59:12.126Z,1012.37
2022-11-10T04:59:47.236Z,1012.41
2022-11-10T05:00:22.324Z,1012.40
2022-11-10T05:00:57.782Z,1012.43
2022-11-10T05:01:32.929Z,1012.42
2022-11-10T05:02:08.342Z,1012.41
2022-11-10T05:02:43.647Z,1012.40
2022-11-10T05:03:18.857Z,1012.46
2022-11-10T05:03:53.848Z,1012.43
2022-11-10T05:04:29.255Z,1012.46
2022-11-10T05:05:04.064Z,1012.49
2022-11-10T05:05:39.255Z,1012.53
2022-11-10T05:06:14.469Z,1012.49
2022-11-10T05:06:49.959Z,1012.52
2022-11-10T05:07:25.208Z,1012.50
2022-11-10T05:08:00.228Z,1012.55
2022-11-10T05:08:35.512Z,1012.57
2022-11-10T05:09:10.624Z,1012.57
2022-11-10T05:09:45.835Z,1012.61
2022-11-10T05:10:21.140Z,1012.62
2022-11-10T05:10:56.356Z,1012.61
2022-11-10T05:11:31.751Z,1012.62
2022-11-10T05:12:06.983Z,1012.63
2022-11-10T05:12:42.382Z,1012.65
2022-11-10T05:13:17.798Z,1012.69
2022-11-10T05:13:53.297Z,1012.67
2022-11-10T05:14:28.519Z,1012.69
2022-11-10T05:15:03.553Z,1012.71
2022-11-10T05:15:38.743Z,1012.74
2022-11-10T05:16:13.970Z,1012.69
2022-11-10T05:16:49.478Z,1012.71
2022-11-10T05:17:24.898Z,1012.78
2022-11-10T05:18:00.101Z,1012.78
2022-11-10T05:18:35.393Z,1012.80
2022-11-10T05:19:10.837Z,1012.77
2022-11-10T05:19:45.921Z,1012.76
2022-11-10T05:20:21.323Z,1012.79
2022-11-10T05:20:56.550Z,1012.84
2022-11-10T05:21:32.062Z,1012.82
2022-11-10T05:22:07.762Z,1012.83
2022-11-10T05:22:47.871Z,1012.81
2022-11-10T05:23:18.670Z,1012.82
2022-11-10T05:23:53.719Z,1012.85
2022-11-10T05:24:29.291Z,1012.86
2022-11-10T05:25:04.464Z,1012.89
2022-11-10T05:25:39.685Z,1012.88
2022-11-10T05:26:14.879Z,1012.89
2022-11-10T05:26:50.223Z,1012.87
2022-11-10T05:27:25.551Z,1012.93
2022-11-10T05:28:00.649Z,1012.92
2022-11-10T05:28:35.954Z,1012.96
2022-11-10T05:29:11.151Z,1012.95
2022-11-10T05:29:46.759Z,1012.94
2022-11-10T05:30:21.855Z,1012.97
2022-11-10T05:30:57.379Z,1012.91
2022-11-10T05:31:32.576Z,1012.95
2022-11-10T05:32:07.909Z,1012.94
2022-11-10T05:32:43.032Z,1012.97
2022-11-10T05:33:18.522Z,1012.93
2022-11-10T05:33:53.517Z,1012.97
2022-11-10T05:34:28.622Z,1012.97
2022-11-10T05:35:03.735Z,1012.99
2022-11-10T05:35:38.937Z,1013.01
2022-11-10T05:36:14.077Z,1013.00
2022-11-10T05:36:49.720Z,1013.00
2022-11-10T05:37:25.026Z,1013.03
2022-11-10T05:38:00.370Z,1013.02
2022-11-10T05:38:40.253Z,1013.04
2022-11-10T05:39:11.178Z,1013.05
2022-11-10T05:39:46.486Z,1013.10
2022-11-10T05:40:21.678Z,1013.06
2022-11-10T05:40:56.990Z,1013.11
2022-11-10T05:41:32.194Z,1013.07
2022-11-10T05:42:07.716Z,1013.08
2022-11-10T05:42:42.812Z,1013.06
2022-11-10T05:43:18.124Z,1013.07
2022-11-10T05:43:53.649Z,1013.10
2022-11-10T05:44:29.142Z,1013.08
2022-11-10T05:45:04.544Z,1013.10
2022-11-10T05:45:39.766Z,1013.08
2022-11-10T05:46:14.981Z,1013.12
2022-11-10T05:46:50.483Z,1013.07
2022-11-10T05:47:25.892Z,1013.10
2022-11-10T05:48:01.092Z,1013.10
2022-11-10T05:48:36.652Z,1013.10
2022-11-10T05:49:11.753Z,1013.12
2022-11-10T05:49:47.668Z,1013.15
2022-11-10T05:50:23.096Z,1013.13
2022-11-10T05:50:58.345Z,1013.16
2022-11-10T05:51:33.534Z,1013.18
2022-11-10T05:52:09.081Z,1013.15
2022-11-10T05:52:49.015Z,1013.18
2022-11-10T05:53:19.993Z,1013.15
2022-11-10T05:53:55.011Z,1013.22
2022-11-10T05:54:30.113Z,1013.18
2022-11-10T05:55:05.631Z,1013.23
2022-11-10T05:55:41.026Z,1013.21
2022-11-10T05:56:16.536Z,1013.19
2022-11-10T05:56:51.939Z,1013.22
2022-11-10T05:57:27.150Z,1013.21
2022-11-10T05:58:02.459Z,1013.22
2022-11-10T05:58:37.656Z,1013.16
2022-11-10T05:59:13.170Z,1013.18
2022-11-10T05:59:48.395Z,1013.18
2022-11-10T06:00:24.343Z,1013.24
2022-11-10T06:00:59.431Z,1013.22
2022-11-10T06:01:35.034Z,1013.22
2022-11-10T06:02:10.273Z,1013.23
2022-11-10T06:02:45.472Z,1013.16
2022-11-10T06:03:21.222Z,1013.18
2022-11-10T06:03:55.937Z,1013.14
2022-11-10T06:04:30.964Z,1013.15
2022-11-10T06:05:05.977Z,1013.16
2022-11-10T06:05:41.285Z,1013.14
2022-11-10T06:06:16.584Z,1013.13
2022-11-10T06:06:51.815Z,1013.16
2022-11-10T06:07:26.910Z,1013.12
2022-11-10T06:08:02.238Z,1013.13
2022-11-10T06:08:37.429Z,1013.15
2022-11-10T06:09:12.650Z,1013.20
2022-11-10T06:09:48.075Z,1013.15
2022-11-10T06:10:24.093Z,1013.17
2022-11-10T06:10:59.532Z,1013.17
2022-11-10T06:11:34.620Z,1013.17
2022-11-10T06:12:10.042Z,1013.21
2022-11-10T06:12:46.617Z,1013.22
2022-11-10T06:13:21.119Z,1013.23
2022-11-10T06:13:55.809Z,1013.24
2022-11-10T06:14:30.914Z,1013.22
2022-11-10T06:15:06.079Z,1013.26
2022-11-10T06:15:42.245Z,1013.26
2022-11-10T06:16:16.551Z,1013.36
2022-11-10T06:16:52.053Z,1013.33
2022-11-10T06:17:27.286Z,1013.31
2022-11-10T06:18:02.478Z,1013.35
2022-11-10T06:18:37.626Z,1013.35
2022-11-10T06:19:12.857Z,1013.35
2022-11-10T06:19:48.056Z,1013.37
2022-11-10T06:20:23.196Z,1013.40
2022-11-10T06:20:58.324Z,1013.39
2022-11-10T06:21:33.620Z,1013.37
2022-11-10T06:22:08.849Z,1013.38
2022-11-10T06:22:44.047Z,1013.42
2022-11-10T06:23:19.065Z,1013.39
2022-11-10T06:23:54.351Z,1013.38
2022-11-10T06:24:29.640Z,1013.45
2022-11-10T06:25:04.896Z,1013.44
2022-11-10T06:25:40.215Z,1013.46
2022-11-10T06:26:15.518Z,1013.45
2022-11-10T06:26:50.737Z,1013.46
2022-11-10T06:27:26.047Z,1013.53
2022-11-10T06:28:01.187Z,1013.52
2022-11-10T06:28:36.113Z,1013.53
2022-11-10T06:29:11.333Z,1013.54
2022-11-10T06:29:46.639Z,1013.56
2022-11-10T06:30:21.941Z,1013.61
2022-11-10T06:30:57.340Z,1013.62
2022-11-10T06:31:32.727Z,1013.67
2022-11-10T06:32:08.147Z,1013.70
2022-11-10T06:32:43.343Z,1013.69
2022-11-10T06:33:18.801Z,1013.68
2022-11-10T06:33:53.737Z,1013.70
2022-11-10T06:34:29.021Z,1013.68
2022-11-10T06:35:04.530Z,1013.72
2022-11-10T06:35:39.824Z,1013.76
2022-11-10T06:36:15.029Z,1013.75
2022-11-10T06:36:50.224Z,1013.81
2022-11-10T06:37:25.441Z,1013.77
2022-11-10T06:38:00.661Z,1013.83
2022-11-10T06:38:36.043Z,1013.84
2022-11-10T06:39:11.440Z,1013.82
2022-11-10T06:39:46.923Z,1013.79
2022-11-10T06:40:22.320Z,1013.82
2022-11-10T06:40:57.437Z,1013.82
2022-11-10T06:41:32.544Z,1013.87
2022-11-10T06:42:07.884Z,1013.86
2022-11-10T06:42:42.960Z,1013.90
2022-11-10T06:43:18.166Z,1013.86
2022-11-10T06:43:53.578Z,1013.86
2022-11-10T06:44:28.773Z,1013.90
2022-11-10T06:45:04.322Z,1013.87
2022-11-10T06:45:39.611Z,1013.89
2022-11-10T06:46:14.768Z,1013.90
2022-11-10T06:46:49.866Z,1013.94
2022-11-10T06:47:25.179Z,1013.91
2022-11-10T06:48:00.298Z,1013.95
2022-11-10T06:48:36.016Z,1013.91
2022-11-10T06:49:11.350Z,1013.94
2022-11-10T06:49:46.730Z,1013.96
2022-11-10T06:50:21.923Z,1013.93
2022-11-10T06:50:57.026Z,1013.97
2022-11-10T06:51:32.436Z,1013.92
2022-11-10T06:52:07.526Z,1013.99
2022-11-10T06:52:43.015Z,1013.98
2022-11-10T06:53:21.735Z,1013.97
2022-11-10T06:53:53.920Z,1013.98
2022-11-10T06:54:29.252Z,1013.98
2022-11-10T06:55:04.556Z,1014.05
2022-11-10T06:55:39.774Z,1014.02
2022-11-10T06:56:14.972Z,1014.10
2022-11-10T06:56:50.552Z,1014.04
2022-11-10T06:57:26.169Z,1014.08
2022-11-10T06:58:01.065Z,1014.13
2022-11-10T06:58:36.774Z,1014.05
2022-11-10T06:59:11.965Z,1014.06
2022-11-10T06:59:46.877Z,1014.08
2022-11-10T07:00:22.257Z,1014.06
2022-11-10T07:00:57.363Z,1014.09
2022-11-10T07:01:32.857Z,1014.12
2022-11-10T07:02:08.058Z,1014.13
2022-11-10T07:02:43.747Z,1014.14
2022-11-10T07:03:19.236Z,1014.16
2022-11-10T07:04:18.291Z,1014.12
2022-11-10T07:04:29.745Z,1014.13
2022-11-10T07:05:05.243Z,1014.18
2022-11-10T07:05:40.137Z,1014.10
2022-11-10T07:06:15.436Z,1014.17
2022-11-10T07:06:50.594Z,1014.16